createdAt,value
2019-02-10T00:00:28.548Z,-436.12
2019-02-10T00:01:28.745Z,-432.46
2019-02-10T00:02:29.053Z,-437.23
2019-02-10T00:03:29.171Z,-433.56
2019-02-10T00:04:29.377Z,-434.98
2019-02-10T00:05:29.609Z,-435.90
2019-02-10T00:06:29.805Z,-435.76
2019-02-10T00:07:30.032Z,-437.21
2019-02-10T00:08:30.233Z,-433.72
2019-02-10T00:09:30.463Z,-435.48
2019-02-10T00:10:30.720Z,-434.79
2019-02-10T00:11:30.965Z,-433.80
2019-02-10T00:12:31.112Z,-433.46
2019-02-10T00:13:31.377Z,-435.42
2019-02-10T00:14:31.561Z,-433.19
2019-02-10T00:15:31.784Z,-434.60
2019-02-10T00:16:31.982Z,-433.12
2019-02-10T00:17:32.214Z,-435.61
2019-02-10T00:18:32.404Z,-435.06
2019-02-10T00:19:32.735Z,-432.73
2019-02-10T00:20:32.867Z,-432.34
2019-02-10T00:21:33.062Z,-434.32
2019-02-10T00:22:33.258Z,-435.82
2019-02-10T00:23:33.474Z,-432.23
2019-02-10T00:24:33.697Z,-433.60
2019-02-10T00:25:33.929Z,-431.93
2019-02-10T00:26:34.134Z,-432.63
2019-02-10T00:27:34.427Z,-431.39
2019-02-10T00:28:34.591Z,-430.32
2019-02-10T00:29:34.809Z,-429.83
2019-02-10T00:30:35.039Z,-431.61
2019-02-10T00:31:35.228Z,-429.17
2019-02-10T00:32:35.455Z,-429.08
2019-02-10T00:33:35.678Z,-433.78
2019-02-10T00:34:35.897Z,-429.72
2019-02-10T00:35:36.203Z,-430.23
2019-02-10T00:36:36.313Z,-429.22
2019-02-10T00:37:36.536Z,-435.75
2019-02-10T00:38:36.781Z,-429.13
2019-02-10T00:39:36.964Z,-427.62
2019-02-10T00:40:37.200Z,-430.16
2019-02-10T00:41:37.398Z,-431.51
2019-02-10T00:42:37.643Z,-431.43
2019-02-10T00:43:37.880Z,-431.27
2019-02-10T00:44:38.012Z,-422.07
2019-02-10T00:45:38.264Z,-431.66
2019-02-10T00:46:38.480Z,-432.53
2019-02-10T00:47:38.699Z,-426.55
2019-02-10T00:48:38.931Z,-431.20
2019-02-10T00:49:39.142Z,-429.34
2019-02-10T00:50:39.376Z,-432.10
2019-02-10T00:51:39.575Z,-427.63
2019-02-10T00:52:39.875Z,-433.45
2019-02-10T00:53:40.013Z,-432.51
2019-02-10T00:54:40.201Z,-436.04
2019-02-10T00:55:40.420Z,-431.05
2019-02-10T00:56:40.633Z,-428.18
2019-02-10T00:57:40.852Z,-431.80
2019-02-10T00:58:41.090Z,-435.44
2019-02-10T00:59:41.290Z,-432.39
2019-02-10T01:00:41.865Z,-434.08
2019-02-10T01:01:41.696Z,-431.33
2019-02-10T01:02:41.911Z,-428.84
2019-02-10T01:03:42.146Z,-435.17
2019-02-10T01:04:42.354Z,-431.40
2019-02-10T01:05:42.577Z,-432.47
2019-02-10T01:06:42.759Z,-432.92
2019-02-10T01:07:42.990Z,-423.90
2019-02-10T01:08:43.320Z,-428.26
2019-02-10T01:09:43.415Z,-433.42
2019-02-10T01:10:43.642Z,-433.99
2019-02-10T01:11:43.824Z,-430.48
2019-02-10T01:12:44.055Z,-437.70
2019-02-10T01:13:44.303Z,-432.16
2019-02-10T01:14:44.506Z,-425.77
2019-02-10T01:15:44.731Z,-432.62
2019-02-10T01:16:44.953Z,-431.00
2019-02-10T01:17:45.111Z,-429.77
2019-02-10T01:18:45.364Z,-435.39
2019-02-10T01:19:45.573Z,-432.19
2019-02-10T01:20:45.790Z,-431.01
2019-02-10T01:21:45.989Z,-434.11
2019-02-10T01:22:46.208Z,-435.77
2019-02-10T01:23:46.432Z,-433.39
2019-02-10T01:24:46.925Z,-434.60
2019-02-10T01:25:46.913Z,-436.29
2019-02-10T01:26:47.057Z,-435.30
2019-02-10T01:27:47.277Z,-434.79
2019-02-10T01:28:47.481Z,-435.45
2019-02-10T01:29:47.717Z,-459.27
2019-02-10T01:30:47.942Z,-459.65
2019-02-10T01:31:48.137Z,-462.07
2019-02-10T01:32:48.357Z,-461.48
2019-02-10T01:33:48.675Z,-459.31
2019-02-10T01:34:48.783Z,-462.08
2019-02-10T01:35:49.010Z,-459.94
2019-02-10T01:36:49.721Z,-460.23
2019-02-10T01:37:49.420Z,-459.20
2019-02-10T01:38:49.635Z,-458.35
2019-02-10T01:39:49.858Z,-461.41
2019-02-10T01:40:50.072Z,-460.20
2019-02-10T01:41:50.415Z,-458.57
2019-02-10T01:42:50.504Z,-460.04
2019-02-10T01:43:50.720Z,-457.09
2019-02-10T01:44:50.951Z,-459.93
2019-02-10T01:45:51.146Z,-462.20
2019-02-10T01:46:51.381Z,-457.86
2019-02-10T01:47:51.591Z,-461.66
2019-02-10T01:48:51.837Z,-459.04
2019-02-10T01:49:52.039Z,-459.01
2019-02-10T01:50:52.218Z,-459.50
2019-02-10T01:51:52.456Z,-459.81
2019-02-10T01:52:52.656Z,-459.33
2019-02-10T01:53:52.909Z,-458.94
2019-02-10T01:54:53.084Z,-458.17
2019-02-10T01:55:53.300Z,-460.19
2019-02-10T01:56:53.542Z,-460.56
2019-02-10T01:57:53.781Z,-458.91
2019-02-10T01:58:53.949Z,-459.62
2019-02-10T01:59:54.158Z,-458.44
2019-02-10T02:00:54.356Z,-457.53
2019-02-10T02:01:54.608Z,-458.35
2019-02-10T02:02:54.799Z,-460.54
2019-02-10T02:03:55.043Z,-458.61
2019-02-10T02:04:55.254Z,-460.31
2019-02-10T02:05:55.459Z,-460.44
2019-02-10T02:06:57.821Z,-459.11
2019-02-10T02:07:55.904Z,-461.68
2019-02-10T02:08:56.135Z,-459.36
2019-02-10T02:09:56.347Z,-461.11
2019-02-10T02:10:56.547Z,-458.64
2019-02-10T02:11:56.817Z,-459.93
2019-02-10T02:12:56.980Z,-457.51
2019-02-10T02:13:57.215Z,-454.44
2019-02-10T02:14:57.540Z,-459.35
2019-02-10T02:15:57.608Z,-457.73
2019-02-10T02:16:57.853Z,-457.93
2019-02-10T02:17:58.046Z,-458.40
2019-02-10T02:18:58.279Z,-459.11
2019-02-10T02:19:58.496Z,-458.39
2019-02-10T02:20:58.700Z,-460.51
2019-02-10T02:21:58.911Z,-458.59
2019-02-10T02:22:59.227Z,-461.06
2019-02-10T02:23:59.364Z,-460.99
2019-02-10T02:24:59.579Z,-459.38
2019-02-10T02:25:59.777Z,-459.31
2019-02-10T02:26:59.993Z,-458.78
2019-02-10T02:28:00.206Z,-459.09
2019-02-10T02:29:00.455Z,-458.14
2019-02-10T02:30:00.980Z,-459.67
2019-02-10T02:31:00.896Z,-460.51
2019-02-10T02:32:01.086Z,-460.40
2019-02-10T02:33:01.269Z,-458.43
2019-02-10T02:34:01.512Z,-457.41
2019-02-10T02:35:01.732Z,-460.52
2019-02-10T02:36:01.929Z,-460.31
2019-02-10T02:37:07.585Z,-460.53
2019-02-10T02:38:03.348Z,-459.03
2019-02-10T02:39:02.825Z,-457.93
2019-02-10T02:40:02.806Z,-459.31
2019-02-10T02:41:02.991Z,-458.97
2019-02-10T02:42:03.232Z,-459.31
2019-02-10T02:43:03.432Z,-458.98
2019-02-10T02:44:03.620Z,-460.18
2019-02-10T02:45:03.868Z,-458.80
2019-02-10T02:46:04.090Z,-459.64
2019-02-10T02:47:04.338Z,-457.31
2019-02-10T02:48:04.621Z,-459.42
2019-02-10T02:49:04.733Z,-458.68
2019-02-10T02:50:04.987Z,-460.68
2019-02-10T02:51:05.250Z,-460.74
2019-02-10T02:52:05.425Z,-460.70
2019-02-10T02:53:05.624Z,-457.42
2019-02-10T02:54:05.840Z,-461.70
2019-02-10T02:55:06.060Z,-459.58
2019-02-10T02:56:06.376Z,-460.37
2019-02-10T02:57:06.518Z,-458.53
2019-02-10T02:58:06.712Z,-458.52
2019-02-10T02:59:06.913Z,-462.49
2019-02-10T03:00:07.171Z,-458.92
2019-02-10T03:01:07.371Z,-462.03
2019-02-10T03:02:07.620Z,-460.44
2019-02-10T03:03:07.797Z,-458.43
2019-02-10T03:04:08.068Z,-461.83
2019-02-10T03:05:08.232Z,-459.95
2019-02-10T03:06:08.432Z,-461.12
2019-02-10T03:07:17.508Z,-460.59
2019-02-10T03:08:09.857Z,-458.49
2019-02-10T03:09:09.073Z,-456.99
2019-02-10T03:10:09.320Z,-459.12
2019-02-10T03:11:09.488Z,-460.92
2019-02-10T03:12:09.814Z,-458.78
2019-02-10T03:13:09.910Z,-459.56
2019-02-10T03:14:10.139Z,-460.60
2019-02-10T03:15:10.369Z,-460.02
2019-02-10T03:16:10.546Z,-461.67
2019-02-10T03:17:10.782Z,-461.03
2019-02-10T03:18:11.001Z,-461.18
2019-02-10T03:19:11.218Z,-460.20
2019-02-10T03:20:11.493Z,-460.26
2019-02-10T03:21:11.680Z,-459.37
2019-02-10T03:22:11.873Z,-460.39
2019-02-10T03:23:12.082Z,-457.34
2019-02-10T03:24:12.298Z,-461.81
2019-02-10T03:25:12.566Z,-463.73
2019-02-10T03:26:12.727Z,-458.00
2019-02-10T03:27:12.957Z,-459.49
2019-02-10T03:28:13.143Z,-459.39
2019-02-10T03:29:13.437Z,-463.16
2019-02-10T03:30:13.632Z,-462.80
2019-02-10T03:31:13.796Z,-461.32
2019-02-10T03:32:14.015Z,-459.51
2019-02-10T03:33:14.363Z,-460.44
2019-02-10T03:34:14.428Z,-461.13
2019-02-10T03:35:14.677Z,-460.81
2019-02-10T03:36:14.872Z,-462.00
2019-02-10T03:37:15.193Z,-462.14
2019-02-10T03:38:15.288Z,-460.48
2019-02-10T03:39:15.536Z,-459.84
2019-02-10T03:40:15.754Z,-461.21
2019-02-10T03:41:15.935Z,-459.86
2019-02-10T03:42:16.160Z,-460.96
2019-02-10T03:43:16.353Z,-462.51
2019-02-10T03:44:16.583Z,-462.06
2019-02-10T03:45:16.893Z,-461.22
2019-02-10T03:46:16.995Z,-462.71
2019-02-10T03:47:17.218Z,-461.69
2019-02-10T03:48:17.414Z,-463.36
2019-02-10T03:49:17.646Z,-462.61
2019-02-10T03:50:17.940Z,-461.24
2019-02-10T03:51:18.092Z,-460.94
2019-02-10T03:52:18.303Z,-460.87
2019-02-10T03:53:18.572Z,-462.62
2019-02-10T03:54:18.709Z,-461.96
2019-02-10T03:55:19.012Z,-459.73
2019-02-10T03:56:19.174Z,-459.75
2019-02-10T03:57:19.391Z,-459.97
2019-02-10T03:58:19.621Z,-461.95
2019-02-10T03:59:19.837Z,-461.51
2019-02-10T04:00:20.089Z,-461.92
2019-02-10T04:01:20.284Z,-462.78
2019-02-10T04:02:20.583Z,-460.82
2019-02-10T04:03:20.732Z,-460.26
2019-02-10T04:04:20.907Z,-461.72
2019-02-10T04:05:21.181Z,-459.12
2019-02-10T04:06:21.394Z,-461.68
2019-02-10T04:07:21.591Z,-460.77
2019-02-10T04:08:21.821Z,-459.27
2019-02-10T04:09:22.020Z,-459.06
2019-02-10T04:10:22.347Z,-460.59
2019-02-10T04:11:22.460Z,-460.77
2019-02-10T04:12:22.659Z,-462.11
2019-02-10T04:13:22.902Z,-462.76
2019-02-10T04:14:23.093Z,-461.41
2019-02-10T04:15:23.319Z,-461.05
2019-02-10T04:16:23.530Z,-460.56
2019-02-10T04:17:23.744Z,-460.32
2019-02-10T04:18:24.274Z,-462.28
2019-02-10T04:19:24.160Z,-461.42
2019-02-10T04:20:24.382Z,-460.99
2019-02-10T04:21:24.596Z,-460.71
2019-02-10T04:22:24.821Z,-460.81
2019-02-10T04:23:25.051Z,-462.09
2019-02-10T04:24:25.251Z,-462.00
2019-02-10T04:25:25.481Z,-460.65
2019-02-10T04:26:25.724Z,-460.49
2019-02-10T04:27:25.873Z,-462.10
2019-02-10T04:28:26.117Z,-461.77
2019-02-10T04:29:26.313Z,-458.43
2019-02-10T04:30:26.627Z,-460.02
2019-02-10T04:31:26.746Z,-461.59
2019-02-10T04:32:26.937Z,-460.77
2019-02-10T04:33:27.187Z,-461.22
2019-02-10T04:34:27.423Z,-461.55
2019-02-10T04:35:27.663Z,-462.07
2019-02-10T04:36:27.825Z,-460.82
2019-02-10T04:37:28.008Z,-463.15
2019-02-10T04:38:28.263Z,-462.79
2019-02-10T04:39:28.461Z,-462.70
2019-02-10T04:40:28.693Z,-462.16
2019-02-10T04:41:28.936Z,-461.94
2019-02-10T04:42:29.124Z,-460.10
2019-02-10T04:43:29.415Z,-461.88
2019-02-10T04:44:29.541Z,-460.14
2019-02-10T04:45:29.766Z,-459.91
2019-02-10T04:46:29.974Z,-459.10
2019-02-10T04:47:30.165Z,-461.44
2019-02-10T04:48:30.410Z,-461.00
2019-02-10T04:49:30.622Z,-461.43
2019-02-10T04:50:30.829Z,-460.10
2019-02-10T04:51:31.207Z,-461.87
2019-02-10T04:52:31.251Z,-459.71
2019-02-10T04:53:31.504Z,-462.20
2019-02-10T04:54:31.700Z,-460.48
2019-02-10T04:55:31.921Z,-460.30
2019-02-10T04:56:32.165Z,-461.88
2019-02-10T04:57:32.364Z,-462.43
2019-02-10T04:58:32.577Z,-460.98
2019-02-10T04:59:32.840Z,-460.19
2019-02-10T05:00:33.004Z,-460.60
2019-02-10T05:01:33.261Z,-460.02
2019-02-10T05:02:33.469Z,-459.20
2019-02-10T05:03:33.678Z,-459.50
2019-02-10T05:04:33.892Z,-461.74
2019-02-10T05:05:34.125Z,-461.52
2019-02-10T05:06:34.362Z,-461.00
2019-02-10T05:07:34.617Z,-459.50
2019-02-10T05:08:34.767Z,-460.39
2019-02-10T05:09:34.949Z,-459.72
2019-02-10T05:10:35.181Z,-461.95
2019-02-10T05:11:35.435Z,-459.15
2019-02-10T05:12:35.619Z,-460.05
2019-02-10T05:13:35.844Z,-462.09
2019-02-10T05:14:36.048Z,-463.59
2019-02-10T05:15:36.277Z,-460.47
2019-02-10T05:16:36.557Z,-459.19
2019-02-10T05:17:36.697Z,-459.78
2019-02-10T05:18:36.911Z,-463.17
2019-02-10T05:19:37.108Z,-459.04
2019-02-10T05:20:37.325Z,-459.18
2019-02-10T05:21:37.577Z,-461.02
2019-02-10T05:22:39.275Z,-462.40
2019-02-10T05:23:38.010Z,-463.55
2019-02-10T05:24:38.330Z,-461.53
2019-02-10T05:25:38.415Z,-462.07
2019-02-10T05:26:38.658Z,-461.89
2019-02-10T05:27:38.845Z,-461.12
2019-02-10T05:28:39.079Z,-462.67
2019-02-10T05:29:39.270Z,-460.07
2019-02-10T05:30:39.474Z,-460.90
2019-02-10T05:31:39.750Z,-462.16
2019-02-10T05:32:40.017Z,-435.40
2019-02-10T05:33:40.160Z,-433.40
2019-02-10T05:34:40.353Z,-433.78
2019-02-10T05:35:40.561Z,-432.25
2019-02-10T05:36:40.815Z,-433.13
2019-02-10T05:37:41.005Z,-434.36
2019-02-10T05:38:41.236Z,-433.83
2019-02-10T05:39:41.435Z,-435.43
2019-02-10T05:40:41.669Z,-432.89
2019-02-10T05:41:41.857Z,-434.38
2019-02-10T05:42:42.069Z,-434.12
2019-02-10T05:43:42.300Z,-435.06
2019-02-10T05:44:42.499Z,-433.80
2019-02-10T05:45:42.715Z,-434.63
2019-02-10T05:46:42.957Z,-434.91
2019-02-10T05:47:43.125Z,-437.13
2019-02-10T05:48:43.418Z,-434.17
2019-02-10T05:49:43.563Z,-435.35
2019-02-10T05:50:43.797Z,-434.54
2019-02-10T05:51:44.082Z,-434.79
2019-02-10T05:52:44.206Z,-435.11
2019-02-10T05:53:44.458Z,-435.48
2019-02-10T05:54:44.661Z,-434.05
2019-02-10T05:55:44.868Z,-431.47
2019-02-10T05:56:45.136Z,-436.53
2019-02-10T05:57:45.434Z,-433.10
2019-02-10T05:58:45.750Z,-434.09
2019-02-10T05:59:45.745Z,-434.43
2019-02-10T06:00:45.966Z,-433.72
2019-02-10T06:01:46.210Z,-434.10
2019-02-10T06:02:46.397Z,-434.18
2019-02-10T06:03:46.653Z,-432.29
2019-02-10T06:04:46.841Z,-434.16
2019-02-10T06:05:47.208Z,-432.56
2019-02-10T06:06:47.347Z,-433.62
2019-02-10T06:07:47.488Z,-430.53
2019-02-10T06:08:47.723Z,-432.86
2019-02-10T06:09:48.027Z,-432.49
2019-02-10T06:10:48.174Z,-434.51
2019-02-10T06:11:48.433Z,-435.69
2019-02-10T06:12:48.607Z,-435.26
2019-02-10T06:13:48.848Z,-434.87
2019-02-10T06:14:49.040Z,-433.92
2019-02-10T06:15:49.240Z,-434.25
2019-02-10T06:16:49.504Z,-437.58
2019-02-10T06:17:49.673Z,-438.53
2019-02-10T06:18:49.870Z,-435.18
2019-02-10T06:19:50.102Z,-437.21
2019-02-10T06:20:50.319Z,-436.45
2019-02-10T06:21:50.631Z,-435.21
2019-02-10T06:22:50.728Z,-434.47
2019-02-10T06:23:50.955Z,-437.39
2019-02-10T06:24:51.164Z,-434.56
2019-02-10T06:25:51.381Z,-436.21
2019-02-10T06:26:51.655Z,-435.37
2019-02-10T06:27:51.824Z,-431.70
2019-02-10T06:28:52.046Z,-431.25
2019-02-10T06:29:52.332Z,-433.88
2019-02-10T06:30:52.499Z,-434.80
2019-02-10T06:31:52.744Z,-435.64
2019-02-10T06:32:52.906Z,-435.51
2019-02-10T06:33:53.111Z,-434.90
2019-02-10T06:34:53.364Z,-434.65
2019-02-10T06:35:53.536Z,-438.78
2019-02-10T06:36:53.847Z,-437.33
2019-02-10T06:37:54.020Z,-437.59
2019-02-10T06:38:54.352Z,-432.84
2019-02-10T06:39:54.428Z,-430.51
2019-02-10T06:40:54.625Z,-435.86
2019-02-10T06:41:54.883Z,-433.02
2019-02-10T06:42:55.084Z,-435.11
2019-02-10T06:43:55.283Z,-435.92
2019-02-10T06:44:55.515Z,-435.29
2019-02-10T06:45:55.711Z,-437.09
2019-02-10T06:46:56.004Z,-434.29
2019-02-10T06:47:57.662Z,-432.74
2019-02-10T06:48:56.360Z,-433.59
2019-02-10T06:49:56.600Z,-434.69
2019-02-10T06:50:56.776Z,-435.32
2019-02-10T06:51:57.023Z,-435.31
2019-02-10T06:52:57.246Z,-434.03
2019-02-10T06:53:57.450Z,-437.48
2019-02-10T06:54:57.738Z,-434.26
2019-02-10T06:55:57.862Z,-436.47
2019-02-10T06:56:58.077Z,-438.42
2019-02-10T06:57:58.318Z,-438.46
2019-02-10T06:58:58.510Z,-440.73
2019-02-10T06:59:58.753Z,-437.62
2019-02-10T07:00:58.946Z,-438.10
2019-02-10T07:01:59.163Z,-438.38
2019-02-10T07:02:59.399Z,-435.17
2019-02-10T07:03:59.568Z,-428.81
2019-02-10T07:04:59.801Z,-443.04
2019-02-10T07:06:00.013Z,-431.69
2019-02-10T07:07:00.240Z,-436.88
2019-02-10T07:08:00.455Z,-431.95
2019-02-10T07:09:00.684Z,-431.95
2019-02-10T07:10:00.931Z,-432.64
2019-02-10T07:11:01.174Z,-432.74
2019-02-10T07:12:01.428Z,-433.59
2019-02-10T07:13:01.567Z,-436.22
2019-02-10T07:14:01.774Z,-434.58
2019-02-10T07:15:02.009Z,-437.89
2019-02-10T07:16:02.204Z,-434.79
2019-02-10T07:17:02.421Z,-431.86
2019-02-10T07:18:02.664Z,-434.64
2019-02-10T07:19:02.843Z,-436.60
2019-02-10T07:20:03.196Z,-437.43
2019-02-10T07:21:03.289Z,-435.49
2019-02-10T07:22:03.492Z,-436.64
2019-02-10T07:23:03.735Z,-434.68
2019-02-10T07:24:03.909Z,-437.22
2019-02-10T07:25:04.158Z,-437.24
2019-02-10T07:26:04.362Z,-435.93
2019-02-10T07:27:04.580Z,-435.61
2019-02-10T07:28:05.047Z,-432.08
2019-02-10T07:29:04.996Z,-436.79
2019-02-10T07:30:05.242Z,-435.44
2019-02-10T07:31:05.443Z,-435.42
2019-02-10T07:32:05.660Z,-437.89
2019-02-10T07:33:06.189Z,-435.73
2019-02-10T07:34:06.079Z,-433.70
2019-02-10T07:35:06.332Z,-433.96
2019-02-10T07:36:06.615Z,-435.58
2019-02-10T07:37:06.959Z,-435.20
2019-02-10T07:38:07.022Z,-435.41
2019-02-10T07:39:07.172Z,-436.45
2019-02-10T07:40:07.391Z,-437.16
2019-02-10T07:41:07.577Z,-436.42
2019-02-10T07:42:07.810Z,-437.98
2019-02-10T07:43:08.072Z,-437.38
2019-02-10T07:44:08.277Z,-437.37
2019-02-10T07:45:08.474Z,-437.83
2019-02-10T07:46:08.661Z,-436.79
2019-02-10T07:47:08.892Z,-438.24
2019-02-10T07:48:09.139Z,-434.42
2019-02-10T07:49:09.321Z,-434.81
2019-02-10T07:50:09.570Z,-437.79
2019-02-10T07:51:09.747Z,-436.99
2019-02-10T07:52:09.960Z,-436.83
2019-02-10T07:53:10.314Z,-436.24
2019-02-10T07:54:10.399Z,-436.57
2019-02-10T07:55:10.644Z,-436.38
2019-02-10T07:56:10.812Z,-436.78
2019-02-10T07:57:11.043Z,-433.67
2019-02-10T07:58:11.273Z,-435.26
2019-02-10T07:59:11.473Z,-436.89
2019-02-10T08:00:11.710Z,-435.78
2019-02-10T08:01:12.018Z,-436.39
2019-02-10T08:02:12.120Z,-437.18
2019-02-10T08:03:12.351Z,-435.96
2019-02-10T08:04:12.569Z,-437.20
2019-02-10T08:05:12.792Z,-436.67
2019-02-10T08:06:12.967Z,-436.27
2019-02-10T08:07:13.183Z,-436.99
2019-02-10T08:08:13.437Z,-436.73
2019-02-10T08:09:13.675Z,-435.70
2019-02-10T08:10:13.839Z,-437.02
2019-02-10T08:11:14.064Z,-438.71
2019-02-10T08:12:14.269Z,-437.03
2019-02-10T08:13:14.513Z,-439.51
2019-02-10T08:14:14.812Z,-436.77
2019-02-10T08:15:14.927Z,-437.26
2019-02-10T08:16:15.162Z,-436.79
2019-02-10T08:17:15.452Z,-437.97
2019-02-10T08:18:15.562Z,-437.17
2019-02-10T08:19:15.781Z,-436.48
2019-02-10T08:20:15.997Z,-437.70
2019-02-10T08:21:16.221Z,-436.90
2019-02-10T08:22:16.432Z,-439.21
2019-02-10T08:23:16.669Z,-439.87
2019-02-10T08:24:21.173Z,-437.01
2019-02-10T08:25:17.099Z,-437.28
2019-02-10T08:26:17.345Z,-437.34
2019-02-10T08:27:17.504Z,-437.39
2019-02-10T08:28:17.766Z,-438.41
2019-02-10T08:29:17.936Z,-440.27
2019-02-10T08:30:18.150Z,-433.31
2019-02-10T08:31:18.383Z,-435.24
2019-02-10T08:32:18.583Z,-435.80
2019-02-10T08:33:18.833Z,-436.93
2019-02-10T08:34:19.103Z,-440.10
2019-02-10T08:35:19.226Z,-438.25
2019-02-10T08:36:19.458Z,-434.22
2019-02-10T08:37:19.656Z,-433.62
2019-02-10T08:38:19.884Z,-433.90
2019-02-10T08:39:20.077Z,-436.45
2019-02-10T08:40:20.298Z,-437.35
2019-02-10T08:41:20.546Z,-434.49
2019-02-10T08:42:20.887Z,-434.83
2019-02-10T08:43:20.975Z,-434.83
2019-02-10T08:44:21.186Z,-437.63
2019-02-10T08:45:21.384Z,-435.19
2019-02-10T08:46:21.618Z,-434.97
2019-02-10T08:47:21.831Z,-432.95
2019-02-10T08:48:22.052Z,-425.66
2019-02-10T08:49:22.247Z,-434.51
2019-02-10T08:50:22.535Z,-430.30
2019-02-10T08:51:22.678Z,-432.53
2019-02-10T08:52:22.896Z,-432.49
2019-02-10T08:53:23.117Z,-431.22
2019-02-10T08:54:23.334Z,-428.75
2019-02-10T08:55:23.530Z,-430.56
2019-02-10T08:56:23.748Z,-431.29
2019-02-10T08:57:24.157Z,-423.13
2019-02-10T08:58:24.221Z,-429.40
2019-02-10T08:59:24.366Z,-432.51
2019-02-10T09:00:24.598Z,-434.13
2019-02-10T09:01:24.820Z,-429.24
2019-02-10T09:02:25.038Z,-433.37
2019-02-10T09:03:25.282Z,-438.33
2019-02-10T09:04:25.500Z,-433.35
2019-02-10T09:05:25.696Z,-426.64
2019-02-10T09:06:26.407Z,-429.31
2019-02-10T09:07:26.336Z,-434.28
2019-02-10T09:08:26.337Z,-431.85
2019-02-10T09:09:26.556Z,-432.36
2019-02-10T09:10:26.770Z,-427.40
2019-02-10T09:11:27.002Z,-430.60
2019-02-10T09:12:27.205Z,-429.44
2019-02-10T09:13:27.427Z,-427.58
2019-02-10T09:14:27.888Z,-433.10
2019-02-10T09:15:28.038Z,-427.86
2019-02-10T09:16:28.081Z,-426.93
2019-02-10T09:17:28.285Z,-425.25
2019-02-10T09:18:28.503Z,-431.36
2019-02-10T09:19:28.735Z,-426.26
2019-02-10T09:20:28.944Z,-426.79
2019-02-10T09:21:29.173Z,-424.28
2019-02-10T09:22:29.383Z,-426.76
2019-02-10T09:23:29.658Z,-424.78
2019-02-10T09:24:29.805Z,-424.95
2019-02-10T09:25:30.001Z,-430.21
2019-02-10T09:26:30.248Z,-431.21
2019-02-10T09:27:30.436Z,-430.28
2019-02-10T09:28:30.637Z,-430.95
2019-02-10T09:29:30.881Z,-433.44
2019-02-10T09:30:31.093Z,-430.31
2019-02-10T09:31:33.107Z,-430.73
2019-02-10T09:32:31.485Z,-427.69
2019-02-10T09:33:31.756Z,-428.84
2019-02-10T09:34:31.943Z,-432.59
2019-02-10T09:35:32.149Z,-431.64
2019-02-10T09:36:32.372Z,-431.59
2019-02-10T09:37:32.573Z,-432.81
2019-02-10T09:38:32.782Z,-431.97
2019-02-10T09:39:33.048Z,-432.08
2019-02-10T09:40:33.295Z,-431.09
2019-02-10T09:41:33.460Z,-428.45
2019-02-10T09:42:34.409Z,-430.46
2019-02-10T09:43:33.873Z,-432.73
2019-02-10T09:44:34.092Z,-431.52
2019-02-10T09:45:34.311Z,-429.87
2019-02-10T09:46:34.553Z,-426.25
2019-02-10T09:47:34.753Z,-433.94
2019-02-10T09:48:35.085Z,-427.12
2019-02-10T09:49:35.184Z,-433.07
2019-02-10T09:50:35.402Z,-430.99
2019-02-10T09:51:35.627Z,-429.20
2019-02-10T09:52:35.828Z,-429.01
2019-02-10T09:53:36.417Z,-429.11
2019-02-10T09:54:36.273Z,-430.86
2019-02-10T09:55:36.463Z,-430.04
2019-02-10T09:56:37.410Z,-432.41
2019-02-10T09:57:36.896Z,-431.14
2019-02-10T09:58:37.116Z,-433.90
2019-02-10T09:59:37.332Z,-431.87
2019-02-10T10:00:37.557Z,-428.79
2019-02-10T10:01:37.776Z,-430.74
2019-02-10T10:02:37.980Z,-431.47
2019-02-10T10:03:38.189Z,-427.29
2019-02-10T10:04:38.441Z,-426.47
2019-02-10T10:05:38.597Z,-429.81
2019-02-10T10:06:38.842Z,-430.54
2019-02-10T10:07:39.037Z,-431.32
2019-02-10T10:08:39.245Z,-432.08
2019-02-10T10:09:39.487Z,-434.36
2019-02-10T10:10:39.676Z,-430.24
2019-02-10T10:11:39.901Z,-428.50
2019-02-10T10:12:40.172Z,-433.15
2019-02-10T10:13:40.304Z,-428.52
2019-02-10T10:14:40.547Z,-430.15
2019-02-10T10:15:40.753Z,-436.41
2019-02-10T10:16:40.963Z,-428.33
2019-02-10T10:17:41.181Z,-429.39
2019-02-10T10:18:41.397Z,-428.89
2019-02-10T10:19:41.629Z,-426.92
2019-02-10T10:20:41.888Z,-436.47
2019-02-10T10:21:42.098Z,-428.05
2019-02-10T10:22:42.299Z,-430.35
2019-02-10T10:23:42.468Z,-428.09
2019-02-10T10:24:49.315Z,-422.97
2019-02-10T10:25:43.891Z,-426.41
2019-02-10T10:26:43.113Z,-429.89
2019-02-10T10:27:43.374Z,-427.69
2019-02-10T10:28:43.570Z,-427.71
2019-02-10T10:29:43.913Z,-430.45
2019-02-10T10:30:43.994Z,-458.71
2019-02-10T10:31:44.196Z,-456.73
2019-02-10T10:32:44.442Z,-453.39
2019-02-10T10:33:44.664Z,-450.94
2019-02-10T10:34:44.894Z,-461.06
2019-02-10T10:35:45.143Z,-455.46
2019-02-10T10:36:45.310Z,-453.63
2019-02-10T10:37:45.648Z,-431.15
2019-02-10T10:38:45.735Z,-455.56
2019-02-10T10:39:45.967Z,-456.05
2019-02-10T10:40:46.163Z,-451.91
2019-02-10T10:41:46.379Z,-451.98
2019-02-10T10:42:46.607Z,-452.93
2019-02-10T10:43:46.812Z,-461.78
2019-02-10T10:44:47.050Z,-454.81
2019-02-10T10:45:47.314Z,-451.57
2019-02-10T10:46:47.450Z,-452.90
2019-02-10T10:47:47.693Z,-455.68
2019-02-10T10:48:47.869Z,-462.56
2019-02-10T10:49:48.119Z,-453.89
2019-02-10T10:50:48.325Z,-457.55
2019-02-10T10:51:48.527Z,-456.55
2019-02-10T10:52:48.987Z,-455.77
2019-02-10T10:53:48.972Z,-459.05
2019-02-10T10:54:49.184Z,-456.10
2019-02-10T10:55:49.418Z,-454.38
2019-02-10T10:56:49.623Z,-456.08
2019-02-10T10:57:49.856Z,-456.16
2019-02-10T10:58:50.047Z,-432.72
2019-02-10T10:59:50.295Z,-429.78
2019-02-10T11:00:50.479Z,-432.17
2019-02-10T11:01:50.717Z,-430.24
2019-02-10T11:02:51.030Z,-428.55
2019-02-10T11:03:51.127Z,-428.84
2019-02-10T11:04:51.348Z,-428.70
2019-02-10T11:05:51.600Z,-423.98
2019-02-10T11:06:51.787Z,-430.73
2019-02-10T11:07:52.062Z,-430.71
2019-02-10T11:08:52.216Z,-429.92
2019-02-10T11:09:52.447Z,-428.66
2019-02-10T11:10:52.716Z,-430.20
2019-02-10T11:11:52.857Z,-432.74
2019-02-10T11:12:53.099Z,-432.15
2019-02-10T11:13:53.291Z,-430.37
2019-02-10T11:14:53.528Z,-432.09
2019-02-10T11:15:53.702Z,-429.59
2019-02-10T11:16:53.949Z,-429.94
2019-02-10T11:17:54.180Z,-432.79
2019-02-10T11:18:54.435Z,-434.08
2019-02-10T11:19:54.582Z,-430.49
2019-02-10T11:20:54.775Z,-433.36
2019-02-10T11:21:55.015Z,-430.43
2019-02-10T11:22:55.233Z,-433.77
2019-02-10T11:23:55.433Z,-431.89
2019-02-10T11:24:55.650Z,-430.98
2019-02-10T11:25:55.863Z,-431.71
2019-02-10T11:26:56.125Z,-431.39
2019-02-10T11:27:56.295Z,-430.38
2019-02-10T11:28:56.499Z,-429.77
2019-02-10T11:29:56.708Z,-430.73
2019-02-10T11:30:56.945Z,-429.22
2019-02-10T11:31:57.150Z,-430.76
2019-02-10T11:32:57.378Z,-430.86
2019-02-10T11:33:57.600Z,-430.38
2019-02-10T11:34:57.841Z,-432.01
2019-02-10T11:35:58.092Z,-433.76
2019-02-10T11:36:58.277Z,-432.63
2019-02-10T11:37:58.541Z,-434.41
2019-02-10T11:38:58.706Z,-435.51
2019-02-10T11:39:58.916Z,-427.23
2019-02-10T11:40:59.149Z,-431.08
2019-02-10T11:41:59.350Z,-430.78
2019-02-10T11:43:00.051Z,-432.01
2019-02-10T11:43:59.885Z,-433.75
2019-02-10T11:45:00.007Z,-431.27
2019-02-10T11:46:00.237Z,-431.09
2019-02-10T11:47:00.443Z,-430.53
2019-02-10T11:48:00.653Z,-430.14
2019-02-10T11:49:00.861Z,-431.78
2019-02-10T11:50:01.079Z,-429.99
2019-02-10T11:51:01.309Z,-431.90
2019-02-10T11:52:01.638Z,-432.01
2019-02-10T11:53:01.740Z,-459.65
2019-02-10T11:54:01.958Z,-459.40
2019-02-10T11:55:02.169Z,-459.75
2019-02-10T11:56:02.392Z,-454.38
2019-02-10T11:57:02.615Z,-456.72
2019-02-10T11:58:02.817Z,-460.60
2019-02-10T11:59:03.013Z,-461.39
2019-02-10T12:00:03.311Z,-457.77
2019-02-10T12:01:03.509Z,-459.97
2019-02-10T12:02:03.678Z,-455.99
2019-02-10T12:03:03.902Z,-456.65
2019-02-10T12:04:04.081Z,-457.27
2019-02-10T12:05:04.313Z,-455.89
2019-02-10T12:06:04.559Z,-455.63
2019-02-10T12:07:04.771Z,-456.89
2019-02-10T12:08:05.041Z,-458.99